»·PEaware :: N577SQ O22-KOAK

N577SQ :: O22-KOAK

FLIGHT INFORMATION

Flight Status: Arrived
Operator: Privately registered:
United States
More flights under this callsign
Pilot: Paul T. (5885)
Aircraft: PIPER PA-28 CHEROKEE ARCHER
(PA28)
More flights by this aircraft type
Origin: O22 Columbia
United States
Destination: KOAK Metro Oakland Intl
United States
More flights between these airports :: More routes between these airports
Route: + FICHU1 HABXU V244 ECA MADN6
File this flight plan on PilotEdge
Remarks:
Altitude:
(Current/Filed)
8,000ft
Speed:
(Current/Filed)
140kts
Departed: 29-May-17 10:45 AM
Arrived: 29-May-17 11:37 AM
Distance/Time
Traveled:
87nm/0:51
Distance/Time
To Go:
Arrived

Flight Plot

Page will automatically refresh every two minutes.

Flight plan parsing failed; only flown route is shown


Map Options




Map Legend


Flown Route
Filed Route
Departure Airport
Arrival Airport
Navaid (VOR, NDB)
Fix

Horizontal Profiles

Position Reports

Time Latitude Longitude Heading Altitude Ground
Speed
29-May-17 10:21 38.029356 -120.411292 184 2090ft 0kts
29-May-17 10:22 38.029356 -120.411292 184 2090ft 0kts
29-May-17 10:23 38.029356 -120.411292 184 2090ft 0kts
29-May-17 10:24 38.029356 -120.411292 184 2090ft 0kts
29-May-17 10:25 38.029356 -120.411292 184 2090ft 0kts
29-May-17 10:26 38.029356 -120.411292 184 2090ft 0kts
29-May-17 10:27 38.029356 -120.411292 184 2090ft 0kts
29-May-17 10:28 38.029356 -120.411292 184 2090ft 0kts
29-May-17 10:29 38.029356 -120.411292 184 2090ft 0kts
29-May-17 10:30 38.029356 -120.411292 184 2090ft 0kts
29-May-17 10:31 38.029356 -120.411292 184 2090ft 0kts
29-May-17 10:32 38.029188 -120.412242 289 2090ft 4kts
29-May-17 10:33 38.030198 -120.412375 12 2094ft 6kts
29-May-17 10:34 38.031814 -120.411987 8 2103ft 6kts
29-May-17 10:35 38.034358 -120.411421 10 2114ft 7kts
29-May-17 10:36 38.035874 -120.411070 9 2121ft 5kts
29-May-17 10:37 38.036318 -120.410971 13 2123ft 0kts
29-May-17 10:38 38.036318 -120.410971 13 2123ft 0kts
29-May-17 10:39 38.036318 -120.410971 13 2123ft 0kts
29-May-17 10:40 38.036318 -120.410971 13 2123ft 0kts
29-May-17 10:41 38.036318 -120.410971 13 2123ft 0kts
29-May-17 10:42 38.036318 -120.410971 13 2123ft 0kts
29-May-17 10:43 38.036318 -120.410971 13 2123ft 0kts
29-May-17 10:44 38.036318 -120.410971 13 2123ft 0kts
29-May-17 10:45 38.036318 -120.410971 13 2123ft 0kts
29-May-17 10:46 38.036318 -120.410971 13 2123ft 0kts
29-May-17 10:47 38.031629 -120.412781 190 2101ft 86kts
29-May-17 10:48 38.009317 -120.416856 188 2838ft 81kts
29-May-17 10:49 37.987667 -120.425649 169 3643ft 78kts
29-May-17 10:50 37.965350 -120.426128 195 4294ft 86kts
29-May-17 10:51 37.941957 -120.432795 191 4928ft 93kts
29-May-17 10:52 37.918690 -120.443235 233 5418ft 104kts
29-May-17 10:53 37.894657 -120.443691 183 6108ft 89kts
29-May-17 10:54 37.877605 -120.457216 253 6845ft 85kts
29-May-17 10:55 37.876544 -120.486560 268 7603ft 74kts
29-May-17 10:56 37.873802 -120.516802 245 8099ft 82kts
29-May-17 10:57 37.873613 -120.554989 260 8082ft 122kts
29-May-17 10:58 37.869516 -120.598318 259 7929ft 138kts
29-May-17 10:59 37.870193 -120.643840 279 8024ft 131kts
29-May-17 11:00 37.868554 -120.687439 273 7971ft 131kts
29-May-17 11:01 37.869994 -120.730905 250 8021ft 120kts
29-May-17 11:02 37.860025 -120.771740 259 8041ft 126kts
29-May-17 11:03 37.862037 -120.815119 263 8140ft 124kts
29-May-17 11:04 37.856987 -120.858452 255 8143ft 126kts
29-May-17 11:05 37.852595 -120.903216 261 8062ft 130kts
29-May-17 11:06 37.852429 -120.949846 266 7927ft 133kts
29-May-17 11:07 37.847025 -120.992840 259 8036ft 126kts
29-May-17 11:08 37.844452 -121.036474 253 8054ft 123kts
29-May-17 11:09 37.836946 -121.079234 260 7930ft 131kts
29-May-17 11:10 37.837918 -121.122930 262 8029ft 126kts
29-May-17 11:11 37.835360 -121.158946 257 8053ft 126kts
29-May-17 11:12 37.825004 -121.196090 240 8030ft 126kts
29-May-17 11:13 37.812241 -121.235048 246 8082ft 133kts
29-May-17 11:14 37.796897 -121.278022 237 8176ft 145kts
29-May-17 11:15 37.777804 -121.322837 243 8149ft 153kts
29-May-17 11:16 37.761788 -121.369885 245 8195ft 151kts
29-May-17 11:17 37.747511 -121.418157 248 8208ft 151kts
29-May-17 11:18 37.739013 -121.470828 253 8051ft 161kts
29-May-17 11:19 37.719196 -121.523115 237 7437ft 167kts
29-May-17 11:20 37.691127 -121.564727 226 6955ft 155kts
29-May-17 11:21 37.670941 -121.610971 264 6507ft 151kts
29-May-17 11:22 37.668007 -121.658407 246 6005ft 132kts
29-May-17 11:23 37.662068 -121.706034 258 4765ft 126kts
29-May-17 11:24 37.658192 -121.745427 259 4142ft 108kts
29-May-17 11:25 37.653962 -121.785411 263 4270ft 117kts
29-May-17 11:26 37.649739 -121.826754 258 4397ft 127kts
29-May-17 11:27 37.640057 -121.870134 249 4370ft 137kts
29-May-17 11:28 37.636378 -121.917006 270 4128ft 150kts
29-May-17 11:29 37.647729 -121.960712 289 4108ft 141kts
29-May-17 11:30 37.657117 -121.994285 297 3587ft 99kts
29-May-17 11:31 37.666166 -122.022178 282 3074ft 98kts
29-May-17 11:32 37.674449 -122.049077 292 2553ft 93kts
29-May-17 11:33 37.682790 -122.076808 285 2141ft 85kts
29-May-17 11:34 37.692068 -122.106377 286 1657ft 91kts
29-May-17 11:35 37.701655 -122.134291 293 1158ft 97kts
29-May-17 11:36 37.710714 -122.161017 286 781ft 89kts
29-May-17 11:37 37.719058 -122.186999 288 420ft 87kts
29-May-17 11:38 37.726173 -122.208782 289 7ft 50kts
29-May-17 11:39 37.728320 -122.212834 344 6ft 0kts
29-May-17 11:40 37.729747 -122.213543 39 6ft 12kts
29-May-17 11:41 37.729999 -122.213565 297 6ft 0kts

Navigation Log

Ident Type
Flight plan parsing failed, navigation log unavailable